createdAt,value
2023-05-21T00:01:25.968Z,13.20
2023-05-21T00:03:53.540Z,13.19
2023-05-21T00:06:21.324Z,13.12
2023-05-21T00:08:48.238Z,13.16
2023-05-21T00:11:15.122Z,13.14
2023-05-21T00:13:45.047Z,13.12
2023-05-21T00:16:12.033Z,13.10
2023-05-21T00:18:40.655Z,13.03
2023-05-21T00:21:07.830Z,13.05
2023-05-21T00:23:36.754Z,13.02
2023-05-21T00:26:03.704Z,13.06
2023-05-21T00:28:30.550Z,13.01
2023-05-21T00:30:57.388Z,13.04
2023-05-21T00:33:26.744Z,12.99
2023-05-21T00:35:53.706Z,13.04
2023-05-21T00:38:20.579Z,12.99
2023-05-21T00:40:47.574Z,13.01
2023-05-21T00:43:14.566Z,13.02
2023-05-21T00:45:47.741Z,13.00
2023-05-21T00:48:15.010Z,13.00
2023-05-21T00:50:42.160Z,12.86
2023-05-21T00:53:09.907Z,12.80
2023-05-21T00:55:40.341Z,12.76
2023-05-21T00:58:08.570Z,12.77
2023-05-21T01:00:37.671Z,12.71
2023-05-21T01:03:05.400Z,12.74
2023-05-21T01:05:32.800Z,12.74
2023-05-21T01:08:00.002Z,12.73
2023-05-21T01:10:27.493Z,12.73
2023-05-21T01:12:57.669Z,12.73
2023-05-21T01:15:25.136Z,12.68
2023-05-21T01:17:52.323Z,12.64
2023-05-21T01:20:20.790Z,12.64
2023-05-21T01:22:57.301Z,12.53
2023-05-21T01:25:25.051Z,12.47
2023-05-21T01:27:52.525Z,12.43
2023-05-21T01:30:21.469Z,12.36
2023-05-21T01:33:23.571Z,12.31
2023-05-21T01:36:05.033Z,12.33
2023-05-21T01:38:42.178Z,12.32
2023-05-21T01:41:12.266Z,12.32
2023-05-21T01:43:42.863Z,12.30
2023-05-21T01:46:13.472Z,12.28
2023-05-21T01:48:41.977Z,12.23
2023-05-21T01:51:09.093Z,12.21
2023-05-21T01:53:38.935Z,12.22
2023-05-21T01:56:06.596Z,12.10
2023-05-21T01:58:33.466Z,12.18
2023-05-21T02:01:00.315Z,12.16
2023-05-21T02:03:31.334Z,12.05
2023-05-21T02:05:58.390Z,12.06
2023-05-21T02:08:25.724Z,12.00
2023-05-21T02:10:52.616Z,12.01
2023-05-21T02:13:26.021Z,11.98
2023-05-21T02:15:55.176Z,11.88
2023-05-21T02:18:22.387Z,11.78
2023-05-21T02:20:49.377Z,11.74
2023-05-21T02:23:16.372Z,11.70
2023-05-21T02:25:44.140Z,11.58
2023-05-21T02:28:11.040Z,11.61
2023-05-21T02:30:37.904Z,11.66
2023-05-21T02:33:04.897Z,11.63
2023-05-21T02:35:32.479Z,11.51
2023-05-21T02:37:59.627Z,11.46
2023-05-21T02:40:26.729Z,11.34
2023-05-21T02:42:53.617Z,11.29
2023-05-21T02:45:20.602Z,11.20
2023-05-21T02:47:47.594Z,11.24
2023-05-21T02:50:15.148Z,11.32
2023-05-21T02:52:42.174Z,11.31
2023-05-21T02:55:09.864Z,11.26
2023-05-21T02:57:36.783Z,11.29
2023-05-21T03:00:06.288Z,11.35
2023-05-21T03:02:33.294Z,11.31
2023-05-21T03:05:00.859Z,11.31
2023-05-21T03:07:27.769Z,11.29
2023-05-21T03:09:54.796Z,11.36
2023-05-21T03:12:21.667Z,11.29
2023-05-21T03:14:51.544Z,11.26
2023-05-21T03:17:19.167Z,11.14
2023-05-21T03:19:46.078Z,11.19
2023-05-21T03:22:12.924Z,11.15
2023-05-21T03:24:40.164Z,10.97
2023-05-21T03:27:07.746Z,10.93
2023-05-21T03:29:35.254Z,10.94
2023-05-21T03:32:02.833Z,10.90
2023-05-21T03:34:30.373Z,10.86
2023-05-21T03:36:57.252Z,10.79
2023-05-21T03:39:24.148Z,10.89
2023-05-21T03:41:51.358Z,10.95
2023-05-21T03:44:18.271Z,10.95
2023-05-21T03:46:45.863Z,10.89
2023-05-21T03:49:13.951Z,10.87
2023-05-21T03:51:40.821Z,10.97
2023-05-21T03:54:07.677Z,10.99
2023-05-21T03:56:34.609Z,10.93
2023-05-21T03:59:01.714Z,10.79
2023-05-21T04:01:28.757Z,10.84
2023-05-21T04:03:56.082Z,10.83
2023-05-21T04:06:23.086Z,10.87
2023-05-21T04:08:50.478Z,10.89
2023-05-21T04:11:17.366Z,10.84
2023-05-21T04:13:44.246Z,10.86
2023-05-21T04:16:14.837Z,10.88
2023-05-21T04:18:44.148Z,10.91
2023-05-21T04:21:12.637Z,10.79
2023-05-21T04:23:39.786Z,10.78
2023-05-21T04:26:07.816Z,10.73
2023-05-21T04:28:35.617Z,10.70
2023-05-21T04:31:02.865Z,10.73
2023-05-21T04:33:30.550Z,10.77
2023-05-21T04:35:58.106Z,10.75
2023-05-21T04:38:26.177Z,10.79
2023-05-21T04:40:53.195Z,10.68
2023-05-21T04:43:25.748Z,10.69
2023-05-21T04:45:56.542Z,10.60
2023-05-21T04:48:25.102Z,10.59
2023-05-21T04:50:53.744Z,10.53
2023-05-21T04:53:20.972Z,10.63
2023-05-21T04:55:48.202Z,10.67
2023-05-21T04:58:18.073Z,10.82
2023-05-21T05:00:47.255Z,10.83
2023-05-21T05:03:14.776Z,10.91
2023-05-21T05:05:42.194Z,11.03
2023-05-21T05:08:09.118Z,11.06
2023-05-21T05:10:36.475Z,11.16
2023-05-21T05:13:03.745Z,11.17
2023-05-21T05:15:30.613Z,11.19
2023-05-21T05:17:57.512Z,11.20
2023-05-21T05:20:24.386Z,11.26
2023-05-21T05:22:51.433Z,11.25
2023-05-21T05:25:18.497Z,11.32
2023-05-21T05:27:45.379Z,11.33
2023-05-21T05:30:12.573Z,11.44
2023-05-21T05:32:39.511Z,11.50
2023-05-21T05:35:07.644Z,11.58
2023-05-21T05:37:34.642Z,11.60
2023-05-21T05:40:01.522Z,11.58
2023-05-21T05:42:28.532Z,11.62
2023-05-21T05:44:56.077Z,11.70
2023-05-21T05:47:22.970Z,11.81
2023-05-21T05:49:49.883Z,11.96
2023-05-21T05:52:16.842Z,12.02
2023-05-21T05:54:43.712Z,12.11
2023-05-21T05:57:10.571Z,12.22
2023-05-21T05:59:37.430Z,12.37
2023-05-21T06:02:04.482Z,12.48
2023-05-21T06:04:31.419Z,12.57
2023-05-21T06:06:58.744Z,12.55
2023-05-21T06:09:27.019Z,12.65
2023-05-21T06:11:53.865Z,12.90
2023-05-21T06:14:26.427Z,12.96
2023-05-21T06:16:53.281Z,12.97
2023-05-21T06:19:20.293Z,13.12
2023-05-21T06:21:47.510Z,13.24
2023-05-21T06:24:14.441Z,13.33
2023-05-21T06:26:42.146Z,13.42
2023-05-21T06:29:09.134Z,13.66
2023-05-21T06:31:36.098Z,13.64
2023-05-21T06:34:03.029Z,13.87
2023-05-21T06:36:30.390Z,13.95
2023-05-21T06:38:57.465Z,14.16
2023-05-21T06:41:24.623Z,14.32
2023-05-21T06:43:51.748Z,14.43
2023-05-21T06:46:18.758Z,14.62
2023-05-21T06:48:46.646Z,14.77
2023-05-21T06:51:13.706Z,14.82
2023-05-21T06:53:40.759Z,14.91
2023-05-21T06:56:07.810Z,15.07
2023-05-21T06:58:34.732Z,15.17
2023-05-21T07:01:01.986Z,15.28
2023-05-21T07:03:29.047Z,15.44
2023-05-21T07:05:57.159Z,15.55
2023-05-21T07:08:24.412Z,15.69
2023-05-21T07:10:51.323Z,15.86
2023-05-21T07:13:18.180Z,15.96
2023-05-21T07:15:45.047Z,16.03
2023-05-21T07:19:33.433Z,16.20
2023-05-21T07:22:00.305Z,16.35
2023-05-21T07:24:28.178Z,16.42
2023-05-21T07:26:55.130Z,16.47
2023-05-21T07:29:22.025Z,16.61
2023-05-21T07:31:48.891Z,16.79
2023-05-21T07:34:16.307Z,16.86
2023-05-21T07:36:43.158Z,16.93
2023-05-21T07:39:10.123Z,16.89
2023-05-21T07:41:37.002Z,16.97
2023-05-21T07:44:04.015Z,17.04
2023-05-21T07:46:30.915Z,17.20
2023-05-21T07:48:57.914Z,17.26
2023-05-21T07:51:24.824Z,17.42
2023-05-21T07:53:53.222Z,17.56
2023-05-21T07:56:21.992Z,17.57
2023-05-21T07:58:49.208Z,17.61
2023-05-21T08:01:16.160Z,17.72
2023-05-21T08:03:43.148Z,17.69
2023-05-21T08:06:10.164Z,17.76
2023-05-21T08:08:36.995Z,17.93
2023-05-21T08:11:03.893Z,17.99
2023-05-21T08:13:30.829Z,18.06
2023-05-21T08:15:57.848Z,18.16
2023-05-21T08:18:25.584Z,18.23
2023-05-21T08:20:52.518Z,18.18
2023-05-21T08:23:19.392Z,18.18
2023-05-21T08:25:46.504Z,18.19
2023-05-21T08:28:13.384Z,18.18
2023-05-21T08:30:40.363Z,18.24
2023-05-21T08:33:07.277Z,18.28
2023-05-21T08:35:34.311Z,18.46
2023-05-21T08:38:01.445Z,18.47
2023-05-21T08:40:28.405Z,18.59
2023-05-21T08:42:55.300Z,18.68
2023-05-21T08:45:23.862Z,18.64
2023-05-21T08:47:59.905Z,18.86
2023-05-21T08:50:28.482Z,18.94
2023-05-21T08:52:55.738Z,18.98
2023-05-21T08:55:23.763Z,19.10
2023-05-21T08:57:51.200Z,19.21
2023-05-21T09:00:18.378Z,19.26
2023-05-21T09:02:46.632Z,19.30
2023-05-21T09:05:15.750Z,19.56
2023-05-21T09:08:03.336Z,19.75
2023-05-21T09:10:37.195Z,19.83
2023-05-21T09:13:04.686Z,20.12
2023-05-21T09:15:32.021Z,20.43
2023-05-21T09:17:58.975Z,20.63
2023-05-21T09:20:27.728Z,20.80
2023-05-21T09:22:55.760Z,21.06
2023-05-21T09:25:29.629Z,21.34
2023-05-21T09:27:57.134Z,21.60
2023-05-21T09:30:26.821Z,21.79
2023-05-21T09:33:00.123Z,22.01
2023-05-21T09:35:27.323Z,22.07
2023-05-21T09:37:54.549Z,22.21
2023-05-21T09:40:24.111Z,22.13
2023-05-21T09:42:53.702Z,22.25
2023-05-21T09:45:21.140Z,22.48
2023-05-21T09:47:49.977Z,22.77
2023-05-21T09:50:28.004Z,22.86
2023-05-21T09:52:56.022Z,23.13
2023-05-21T09:55:24.321Z,23.29
2023-05-21T09:57:52.547Z,23.35
2023-05-21T10:00:28.765Z,23.16
2023-05-21T10:02:58.117Z,23.38
2023-05-21T10:05:30.391Z,23.49
2023-05-21T10:08:02.491Z,23.69
2023-05-21T10:10:32.197Z,23.57
2023-05-21T10:13:03.984Z,23.78
2023-05-21T10:15:47.377Z,23.88
2023-05-21T10:18:16.978Z,24.02
2023-05-21T10:20:44.643Z,23.86
2023-05-21T10:23:13.197Z,24.02
2023-05-21T10:25:40.601Z,24.18
2023-05-21T10:28:07.609Z,24.29
2023-05-21T10:30:36.870Z,24.44
2023-05-21T10:33:04.765Z,24.48
2023-05-21T10:35:34.091Z,24.48
2023-05-21T10:38:04.909Z,24.30
2023-05-21T10:40:32.043Z,23.87
2023-05-21T10:43:14.608Z,23.70
2023-05-21T10:46:33.599Z,23.85
2023-05-21T10:49:32.793Z,24.04
2023-05-21T10:52:43.484Z,24.14
2023-05-21T10:55:43.789Z,24.06
2023-05-21T10:58:31.700Z,24.09
2023-05-21T11:01:00.189Z,24.12
2023-05-21T11:03:28.983Z,24.29
2023-05-21T11:05:57.167Z,24.40
2023-05-21T11:08:29.169Z,24.46
2023-05-21T11:11:00.434Z,24.50
2023-05-21T11:13:28.786Z,24.46
2023-05-21T11:15:58.653Z,24.33
2023-05-21T11:18:40.482Z,24.18
2023-05-21T11:21:10.236Z,24.30
2023-05-21T11:23:51.814Z,24.28
2023-05-21T11:26:24.588Z,24.26
2023-05-21T11:29:11.956Z,24.58
2023-05-21T11:31:39.117Z,24.47
2023-05-21T11:34:15.264Z,24.42
2023-05-21T11:36:47.144Z,24.44
2023-05-21T11:39:17.881Z,24.53
2023-05-21T11:42:14.046Z,24.46
2023-05-21T11:44:46.202Z,24.47
2023-05-21T11:47:17.946Z,24.53
2023-05-21T11:49:46.457Z,24.54
2023-05-21T11:52:14.760Z,24.51
2023-05-21T11:54:51.931Z,24.48
2023-05-21T11:57:19.528Z,24.48
2023-05-21T11:59:47.179Z,24.23
2023-05-21T12:02:19.113Z,24.33
2023-05-21T12:04:48.701Z,24.47
2023-05-21T12:07:19.192Z,24.31
2023-05-21T12:09:48.869Z,24.22
2023-05-21T12:12:18.582Z,24.50
2023-05-21T12:14:48.102Z,24.57
2023-05-21T12:17:23.309Z,24.58
2023-05-21T12:19:53.509Z,24.75
2023-05-21T12:22:20.959Z,24.88
2023-05-21T12:24:48.955Z,24.76
2023-05-21T12:27:17.160Z,24.91
2023-05-21T12:29:46.802Z,25.05
2023-05-21T12:32:15.712Z,24.60
2023-05-21T12:34:54.891Z,24.61
2023-05-21T12:37:26.829Z,24.64
2023-05-21T12:39:56.446Z,24.65
2023-05-21T12:42:30.081Z,24.70
2023-05-21T12:44:58.311Z,24.74
2023-05-21T12:47:26.977Z,24.89
2023-05-21T12:49:58.286Z,24.88
2023-05-21T12:52:25.910Z,24.74
2023-05-21T12:54:56.736Z,24.75
2023-05-21T12:57:38.899Z,24.83
2023-05-21T13:00:07.597Z,24.67
2023-05-21T13:02:39.760Z,24.57
2023-05-21T13:05:09.805Z,24.03
2023-05-21T13:07:39.470Z,23.92
2023-05-21T13:10:07.928Z,24.06
2023-05-21T13:12:35.610Z,24.27
2023-05-21T13:15:05.209Z,24.38
2023-05-21T13:17:32.164Z,24.48
2023-05-21T13:20:20.665Z,24.41
2023-05-21T13:22:50.646Z,24.09
2023-05-21T13:25:22.198Z,24.06
2023-05-21T13:27:50.700Z,24.05
2023-05-21T13:30:18.867Z,24.09
2023-05-21T13:32:46.369Z,24.19
2023-05-21T13:35:13.706Z,24.49
2023-05-21T13:37:41.328Z,24.53
2023-05-21T13:40:17.118Z,24.85
2023-05-21T13:42:46.000Z,25.20
2023-05-21T13:45:15.684Z,25.62
2023-05-21T13:47:45.789Z,26.12
2023-05-21T13:50:13.436Z,26.32
2023-05-21T13:52:40.671Z,26.47
2023-05-21T13:55:08.455Z,26.72
2023-05-21T13:57:35.486Z,26.90
2023-05-21T14:00:04.060Z,26.98
2023-05-21T14:02:31.001Z,26.79
2023-05-21T14:04:57.979Z,26.71
2023-05-21T14:07:24.920Z,26.84
2023-05-21T14:09:52.547Z,26.83
2023-05-21T14:12:19.571Z,26.84
2023-05-21T14:14:46.450Z,27.02
2023-05-21T14:17:13.349Z,27.12
2023-05-21T14:19:40.241Z,27.19
2023-05-21T14:22:07.084Z,26.90
2023-05-21T14:24:33.952Z,26.94
2023-05-21T14:27:00.796Z,26.98
2023-05-21T14:29:27.754Z,26.99
2023-05-21T14:31:54.663Z,26.78
2023-05-21T14:34:21.599Z,26.78
2023-05-21T14:36:48.478Z,26.77
2023-05-21T14:39:15.666Z,26.72
2023-05-21T14:41:42.973Z,26.35
2023-05-21T14:44:09.877Z,26.38
2023-05-21T14:46:37.016Z,26.44
2023-05-21T14:49:04.138Z,26.29
2023-05-21T14:51:31.890Z,26.31
2023-05-21T14:53:58.967Z,26.21
2023-05-21T14:56:27.903Z,26.18
2023-05-21T14:58:55.177Z,26.24
2023-05-21T15:01:22.210Z,26.22
2023-05-21T15:03:49.523Z,26.17
2023-05-21T15:06:16.777Z,25.95
2023-05-21T15:08:43.782Z,25.75
2023-05-21T15:11:10.675Z,25.86
2023-05-21T15:13:38.894Z,25.84
2023-05-21T15:16:06.323Z,25.75
2023-05-21T15:18:33.414Z,25.74
2023-05-21T15:21:00.405Z,25.54
2023-05-21T15:23:27.253Z,25.47
2023-05-21T15:25:54.228Z,25.29
2023-05-21T15:28:21.122Z,25.33
2023-05-21T15:30:47.952Z,25.43
2023-05-21T15:33:14.875Z,25.38
2023-05-21T15:35:42.182Z,25.30
2023-05-21T15:38:09.513Z,25.21
2023-05-21T15:40:36.422Z,25.14
2023-05-21T15:43:03.338Z,25.10
2023-05-21T15:45:30.190Z,25.05
2023-05-21T15:47:57.402Z,24.88
2023-05-21T15:50:24.304Z,24.91
2023-05-21T15:52:53.361Z,24.85
2023-05-21T15:55:22.024Z,24.89
2023-05-21T15:57:48.922Z,24.89
2023-05-21T16:00:15.966Z,24.92
2023-05-21T16:02:42.938Z,25.02
2023-05-21T16:05:10.353Z,25.08
2023-05-21T16:07:38.398Z,25.12
2023-05-21T16:10:10.838Z,25.12
2023-05-21T16:12:38.606Z,25.19
2023-05-21T16:15:06.551Z,25.44
2023-05-21T16:17:33.515Z,25.74
2023-05-21T16:20:00.392Z,26.03
2023-05-21T16:22:27.276Z,26.08
2023-05-21T16:24:54.814Z,26.11
2023-05-21T16:27:21.804Z,26.15
2023-05-21T16:29:48.683Z,26.23
2023-05-21T16:32:16.232Z,26.10
2023-05-21T16:34:43.254Z,26.10
2023-05-21T16:37:10.195Z,26.16
2023-05-21T16:39:37.512Z,26.44
2023-05-21T16:42:04.823Z,26.69
2023-05-21T16:44:32.459Z,26.77
2023-05-21T16:47:00.382Z,26.84
2023-05-21T16:49:28.111Z,26.78
2023-05-21T16:51:55.048Z,26.67
2023-05-21T16:54:22.279Z,26.43
2023-05-21T16:56:49.328Z,26.28
2023-05-21T16:59:16.516Z,26.28
2023-05-21T17:01:43.473Z,26.12
2023-05-21T17:04:11.130Z,25.83
2023-05-21T17:06:38.005Z,25.78
2023-05-21T17:09:04.885Z,25.77
2023-05-21T17:11:31.813Z,25.78
2023-05-21T17:13:58.917Z,25.56
2023-05-21T17:16:25.768Z,25.59
2023-05-21T17:18:52.762Z,25.52
2023-05-21T17:21:19.992Z,25.42
2023-05-21T17:23:46.873Z,25.36
2023-05-21T17:26:14.115Z,25.27
2023-05-21T17:28:41.048Z,25.25
2023-05-21T17:31:09.736Z,25.23
2023-05-21T17:33:37.764Z,25.14
2023-05-21T17:36:04.989Z,25.04
2023-05-21T17:38:31.943Z,24.95
2023-05-21T17:40:59.509Z,24.80
2023-05-21T17:43:27.839Z,24.68
2023-05-21T17:45:54.766Z,24.67
2023-05-21T17:48:21.826Z,24.59
2023-05-21T17:50:48.862Z,24.53
2023-05-21T17:53:16.338Z,24.51
2023-05-21T17:55:43.338Z,24.24
2023-05-21T17:58:10.274Z,24.10
2023-05-21T18:00:37.210Z,23.89
2023-05-21T18:03:04.545Z,23.76
2023-05-21T18:05:31.512Z,23.55
2023-05-21T18:08:01.402Z,23.37
2023-05-21T18:10:28.881Z,23.11
2023-05-21T18:12:55.952Z,22.98
2023-05-21T18:15:23.007Z,22.81
2023-05-21T18:17:49.911Z,22.59
2023-05-21T18:20:17.020Z,22.51
2023-05-21T18:22:45.161Z,22.41
2023-05-21T18:25:12.057Z,22.38
2023-05-21T18:27:38.956Z,22.29
2023-05-21T18:30:07.189Z,22.15
2023-05-21T18:32:38.880Z,21.97
2023-05-21T18:35:11.895Z,21.75
2023-05-21T18:37:41.783Z,21.56
2023-05-21T18:40:09.427Z,21.44
2023-05-21T18:42:36.476Z,21.25
2023-05-21T18:45:10.567Z,21.08
2023-05-21T18:47:39.363Z,20.92
2023-05-21T18:50:13.888Z,20.68
2023-05-21T18:52:40.810Z,20.56
2023-05-21T18:55:08.408Z,20.39
2023-05-21T18:57:35.309Z,20.15
2023-05-21T19:00:02.221Z,20.02
2023-05-21T19:02:29.933Z,19.84
2023-05-21T19:04:56.869Z,19.69
2023-05-21T19:07:23.825Z,19.51
2023-05-21T19:09:50.741Z,19.37
2023-05-21T19:12:17.601Z,19.24
2023-05-21T19:14:45.184Z,19.17
2023-05-21T19:17:13.807Z,19.06
2023-05-21T19:19:40.785Z,18.92
2023-05-21T19:22:07.895Z,18.88
2023-05-21T19:24:34.810Z,18.83
2023-05-21T19:27:01.647Z,18.65
2023-05-21T19:29:28.903Z,18.49
2023-05-21T19:31:57.478Z,18.23
2023-05-21T19:34:24.481Z,18.24
2023-05-21T19:36:53.835Z,18.24
2023-05-21T19:39:21.794Z,18.09
2023-05-21T19:41:48.711Z,17.84
2023-05-21T19:44:15.625Z,17.89
2023-05-21T19:46:42.523Z,17.82
2023-05-21T19:49:11.235Z,17.62
2023-05-21T19:51:38.182Z,17.57
2023-05-21T19:54:05.017Z,17.60
2023-05-21T19:56:31.884Z,17.45
2023-05-21T19:58:58.747Z,17.35
2023-05-21T20:01:25.844Z,17.37
2023-05-21T20:03:52.869Z,17.39
2023-05-21T20:06:20.893Z,17.29
2023-05-21T20:08:48.163Z,17.11
2023-05-21T20:11:15.175Z,17.03
2023-05-21T20:13:42.487Z,17.11
2023-05-21T20:16:10.736Z,17.09
2023-05-21T20:18:37.696Z,17.08
2023-05-21T20:21:06.568Z,16.95
2023-05-21T20:23:33.484Z,16.81
2023-05-21T20:26:00.339Z,16.64
2023-05-21T20:28:27.209Z,16.54
2023-05-21T20:30:59.852Z,16.50
2023-05-21T20:33:28.147Z,16.44
2023-05-21T20:35:54.991Z,16.31
2023-05-21T20:38:22.238Z,16.27
2023-05-21T20:40:49.129Z,16.27
2023-05-21T20:43:16.097Z,16.36
2023-05-21T20:45:43.806Z,16.43
2023-05-21T20:48:12.174Z,16.39
2023-05-21T20:50:41.155Z,16.27
2023-05-21T20:53:08.749Z,16.30
2023-05-21T20:55:35.641Z,16.35
2023-05-21T20:58:05.929Z,16.25
2023-05-21T21:00:33.534Z,16.15
2023-05-21T21:03:03.909Z,16.29
2023-05-21T21:05:31.173Z,16.32
2023-05-21T21:08:02.589Z,16.28
2023-05-21T21:10:29.490Z,16.28
2023-05-21T21:12:56.357Z,16.25
2023-05-21T21:15:23.207Z,16.13
2023-05-21T21:17:50.150Z,16.17
2023-05-21T21:20:17.934Z,16.24
2023-05-21T21:22:45.613Z,16.23
2023-05-21T21:25:14.320Z,16.29
2023-05-21T21:27:42.610Z,16.18
2023-05-21T21:30:10.250Z,16.12
2023-05-21T21:32:37.330Z,16.18
2023-05-21T21:35:04.626Z,16.23
2023-05-21T21:37:31.486Z,16.21
2023-05-21T21:39:58.342Z,16.20
2023-05-21T21:42:25.242Z,16.09
2023-05-21T21:44:52.094Z,16.07
2023-05-21T21:47:18.955Z,15.97
2023-05-21T21:49:45.837Z,15.98
2023-05-21T21:52:14.877Z,15.94
2023-05-21T21:54:41.737Z,15.99
2023-05-21T21:57:08.643Z,16.03
2023-05-21T21:59:38.597Z,15.93
2023-05-21T22:02:06.342Z,15.92
2023-05-21T22:04:33.299Z,15.82
2023-05-21T22:07:00.254Z,15.68
2023-05-21T22:09:27.243Z,15.67
2023-05-21T22:11:54.136Z,15.68
2023-05-21T22:14:20.990Z,15.70
2023-05-21T22:16:48.034Z,15.68
2023-05-21T22:19:16.243Z,15.65
2023-05-21T22:21:43.453Z,15.65
2023-05-21T22:24:24.169Z,15.54
2023-05-21T22:26:57.109Z,15.54
2023-05-21T22:29:23.983Z,15.54
2023-05-21T22:31:50.999Z,15.46
2023-05-21T22:34:17.877Z,15.48
2023-05-21T22:36:44.919Z,15.45
2023-05-21T22:39:11.775Z,15.52
2023-05-21T22:41:38.653Z,15.50
2023-05-21T22:44:05.549Z,15.55
2023-05-21T22:46:32.474Z,15.59
2023-05-21T22:49:00.345Z,15.58
2023-05-21T22:51:29.043Z,15.54
2023-05-21T22:53:56.151Z,15.55
2023-05-21T22:56:23.009Z,15.61
2023-05-21T22:58:49.930Z,15.54
2023-05-21T23:01:16.885Z,15.48
2023-05-21T23:03:43.736Z,15.40
2023-05-21T23:06:10.658Z,15.34
2023-05-21T23:08:37.677Z,15.37
2023-05-21T23:11:04.578Z,15.38
2023-05-21T23:13:31.436Z,15.34
2023-05-21T23:15:59.084Z,15.32
2023-05-21T23:18:26.415Z,15.36
2023-05-21T23:20:53.320Z,15.29
2023-05-21T23:23:20.195Z,15.25
2023-05-21T23:25:47.078Z,15.16
2023-05-21T23:28:13.917Z,15.15
2023-05-21T23:30:40.943Z,15.11
2023-05-21T23:33:07.969Z,15.12
2023-05-21T23:35:34.886Z,15.09
2023-05-21T23:38:01.808Z,15.02
2023-05-21T23:40:28.662Z,14.99
2023-05-21T23:42:55.514Z,14.87
2023-05-21T23:45:22.597Z,14.95
2023-05-21T23:47:49.509Z,14.90
2023-05-21T23:50:16.736Z,14.86
2023-05-21T23:52:43.730Z,14.68
2023-05-21T23:55:12.820Z,14.67
2023-05-21T23:57:39.696Z,14.66
